Time;durP1;ratioP1;P1;durP2;ratioP2;P2;SDS_P1;SDS_P2;PMS_P1;PMS_P2;Temp;Humidity;BMP_temperature;BMP_pressure;BME280_temperature;BME280_humidity;BME280_pressure;Samples;Min_cycle;Max_cycle;Signal;HPM_P1;HPM_P2
2024/01/15 00:00:22;;;;;;;34.00;12.00;;;;;;;8.27;48.22;96977.05;67980;1275;1016303;-61
2024/01/15 00:03:44;;;;;;;35.00;12.20;;;;;;;8.25;48.20;96975.09;67974;1275;1016475;-61
2024/01/15 00:06:47;;;;;;;;;;;;;;;8.20;48.56;96970.61;68000;1275;1016376;-61
2024/01/15 00:09:50;;;;;;;35.00;12.40;;;;;;;8.15;48.56;96965.77;68019;1275;1016204;-62
2024/01/15 00:12:52;;;;;;;;;;;;;;;8.20;48.77;96955.35;67992;1275;1016782;-58
2024/01/15 00:15:55;;;;;;;39.10;13.70;;;;;;;8.17;48.80;96951.41;68038;1275;1016347;-60
2024/01/15 00:18:58;;;;;;;34.40;11.70;;;;;;;8.26;48.70;96949.08;68001;1275;1016494;-60
2024/01/15 00:22:01;;;;;;;;;;;;;;;8.26;48.62;96948.00;67985;1275;1016452;-61
2024/01/15 00:25:03;;;;;;;37.50;12.50;;;;;;;8.18;48.60;96939.28;68004;1275;1016320;-61
2024/01/15 00:28:06;;;;;;;;;;;;;;;8.14;49.22;96923.63;68009;1275;1016419;-61
2024/01/15 00:31:09;;;;;;;37.30;13.40;;;;;;;8.21;49.17;96917.05;67952;1275;1016428;-60
2024/01/15 00:34:12;;;;;;;;;;;;;;;8.47;48.23;96907.84;68027;1275;1015910;-61
2024/01/15 00:37:14;;;;;;;35.90;12.60;;;;;;;8.21;48.52;96903.89;68018;1275;1016426;-61
2024/01/15 00:40:17;;;;;;;;;;;;;;;8.02;48.77;96908.05;67948;1275;1016596;-61
2024/01/15 00:43:19;;;;;;;34.10;12.40;;;;;;;7.72;49.57;96908.69;68029;1275;1016343;-61
2024/01/15 00:46:22;;;;;;;;;;;;;;;7.68;49.42;96896.45;67949;1275;1016294;-61
2024/01/15 00:49:25;;;;;;;36.00;11.90;;;;;;;7.57;49.85;96890.93;67988;1275;1016247;-61
2024/01/15 00:52:28;;;;;;;33.00;11.80;;;;;;;7.64;49.80;96880.46;68011;1275;1017210;-61
2024/01/15 00:55:30;;;;;;;38.90;12.50;;;;;;;7.60;49.56;96874.27;68006;1275;1015620;-61
2024/01/15 00:58:33;;;;;;;;;;;;;;;7.62;49.40;96872.42;67969;1275;1018225;-60
2024/01/15 01:01:35;;;;;;;34.10;11.50;;;;;;;7.57;49.47;96876.08;68031;1275;1016461;-61
2024/01/15 01:04:38;;;;;;;36.00;11.60;;;;;;;7.65;49.16;96886.98;68015;1275;1016390;-61
2024/01/15 01:07:41;;;;;;;34.90;11.50;;;;;;;7.71;49.06;96888.39;67947;1275;1016328;-60
2024/01/15 01:10:43;;;;;;;36.30;12.10;;;;;;;7.77;48.99;96883.04;67985;1275;1016422;-62
2024/01/15 01:13:46;;;;;;;35.60;11.70;;;;;;;7.78;48.96;96877.02;68008;1275;1016416;-62
2024/01/15 01:16:49;;;;;;;;;;;;;;;7.83;48.89;96868.63;67956;1275;1016421;-62
2024/01/15 01:19:51;;;;;;;34.40;11.80;;;;;;;7.79;48.93;96860.44;67963;1275;1016409;-61
2024/01/15 01:22:54;;;;;;;33.50;11.60;;;;;;;7.73;49.10;96854.14;67991;1275;1018943;-61
2024/01/15 01:25:56;;;;;;;36.40;11.60;;;;;;;7.69;49.20;96860.55;67982;1275;1016348;-61
2024/01/15 01:28:59;;;;;;;32.50;10.50;;;;;;;7.74;49.32;96855.79;67971;1275;1016688;-61
2024/01/15 01:32:02;;;;;;;;;;;;;;;7.80;48.94;96849.77;67972;1275;1016950;-61
2024/01/15 01:35:04;;;;;;;34.20;10.70;;;;;;;7.81;48.85;96846.20;68023;1275;1016067;-62
2024/01/15 01:38:07;;;;;;;;;;;;;;;7.84;48.95;96842.70;68019;1275;1017780;-61
2024/01/15 01:41:10;;;;;;;30.60;10.80;;;;;;;7.76;48.77;96838.06;67970;1275;1016111;-61
2024/01/15 01:44:12;;;;;;;;;;;;;;;7.76;48.92;96842.60;68011;1275;1016396;-62
2024/01/15 01:47:15;;;;;;;30.30;9.80;;;;;;;7.79;48.93;96837.44;67992;1275;1016276;-61
2024/01/15 01:50:18;;;;;;;29.50;10.40;;;;;;;7.82;48.74;96831.48;67989;1275;1016461;-61
2024/01/15 01:53:20;;;;;;;33.00;10.30;;;;;;;7.76;48.72;96831.59;68019;1275;1016266;-61
2024/01/15 01:56:23;;;;;;;27.80;9.40;;;;;;;7.76;48.82;96820.27;68006;1275;1016477;-61
2024/01/15 01:59:25;;;;;;;;;;;;;;;7.74;48.77;96821.90;68009;1275;1016467;-61
2024/01/15 02:02:28;;;;;;;30.30;10.70;;;;;;;7.76;48.58;96809.86;68005;1275;1016469;-61
2024/01/15 02:05:31;;;;;;;29.80;10.10;;;;;;;7.79;48.63;96805.65;68001;1275;1016262;-61
2024/01/15 02:08:33;;;;;;;31.00;10.20;;;;;;;7.75;48.60;96790.16;68021;1275;1016281;-61
2024/01/15 02:11:37;;;;;;;26.70;8.30;;;;;;;7.71;48.83;96795.34;67999;1275;1016447;-61
2024/01/15 02:14:40;;;;;;;29.60;10.30;;;;;;;7.63;48.94;96787.66;67923;1275;1016446;-62
2024/01/15 02:17:43;;;;;;;;;;;;;;;7.64;49.16;96782.19;67974;1275;1016498;-62
2024/01/15 02:20:45;;;;;;;29.30;10.00;;;;;;;7.63;49.15;96787.80;67951;1275;1016314;-62
2024/01/15 02:23:48;;;;;;;;;;;;;;;7.69;49.21;96796.05;67913;1275;1016435;-61
2024/01/15 02:26:51;;;;;;;29.50;9.20;;;;;;;7.63;49.25;96788.30;67992;1275;1017000;-62
2024/01/15 02:29:53;;;;;;;;;;;;;;;7.71;49.25;96780.02;68030;1275;1016274;-61
2024/01/15 02:32:56;;;;;;;29.20;9.60;;;;;;;7.68;49.34;96767.21;67976;1275;1017057;-61
2024/01/15 02:35:59;;;;;;;;;;;;;;;7.67;49.52;96774.24;68011;1275;1016454;-61
2024/01/15 02:39:01;;;;;;;33.60;9.70;;;;;;;7.77;49.25;96766.48;68016;1275;1016385;-61
2024/01/15 02:42:04;;;;;;;;;;;;;;;7.74;49.26;96761.64;68010;1275;1016878;-61
2024/01/15 02:45:07;;;;;;;29.10;9.50;;;;;;;7.72;49.50;96760.80;68015;1275;1017129;-62
2024/01/15 02:48:09;;;;;;;;;;;;;;;7.62;49.73;96752.89;68025;1275;1016430;-61
2024/01/15 02:51:12;;;;;;;28.10;9.10;;;;;;;7.58;49.97;96742.76;68003;1275;1016459;-60
2024/01/15 02:54:15;;;;;;;27.10;9.40;;;;;;;7.59;50.12;96747.06;68035;1275;1016495;-61
2024/01/15 02:57:17;;;;;;;26.00;8.30;;;;;;;7.60;50.21;96740.08;68041;1275;1016420;-61
2024/01/15 03:00:20;;;;;;;28.30;9.20;;;;;;;7.49;50.31;96731.04;67969;1275;1016280;-61
2024/01/15 03:03:23;;;;;;;26.40;9.20;;;;;;;7.63;49.92;96725.87;68034;1275;1016208;-60
2024/01/15 03:06:25;;;;;;;;;;;;;;;7.67;49.79;96721.20;68026;1275;1016237;-61
2024/01/15 03:09:28;;;;;;;27.00;8.10;;;;;;;7.54;49.88;96714.79;67971;1275;1016360;-61
2024/01/15 03:12:31;;;;;;;;;;;;;;;7.56;50.09;96710.11;68018;1275;1016285;-62
2024/01/15 03:15:34;;;;;;;25.10;8.20;;;;;;;7.68;50.07;96703.36;68005;1275;1016183;-61
2024/01/15 03:18:36;;;;;;;;;;;;;;;7.71;50.08;96709.20;67991;1275;1016445;-61
2024/01/15 03:21:39;;;;;;;33.80;10.10;;;;;;;7.64;50.24;96704.89;68036;1275;1016402;-61
2024/01/15 03:24:42;;;;;;;;;;;;;;;7.67;50.31;96703.85;67984;1275;1016256;-62
2024/01/15 03:27:44;;;;;;;26.30;8.50;;;;;;;7.75;49.90;96704.16;67964;1275;1016349;-62
2024/01/15 03:30:47;;;;;;;28.20;8.30;;;;;;;7.81;49.94;96700.71;67996;1275;1016250;-61
2024/01/15 03:33:50;;;;;;;;;;;;;;;7.77;49.82;96698.93;68046;1275;1018537;-62
2024/01/15 03:36:52;;;;;;;28.60;9.50;;;;;;;7.73;49.90;96698.23;67986;1275;1016307;-62
2024/01/15 03:39:55;;;;;;;28.10;9.20;;;;;;;7.76;49.82;96687.54;68011;1275;1016330;-62
2024/01/15 03:42:57;;;;;;;28.90;9.00;;;;;;;7.88;49.31;96676.44;68011;1275;1016237;-61
2024/01/15 03:46:00;;;;;;;28.00;9.70;;;;;;;7.83;49.25;96679.71;67960;1275;1016204;-62
2024/01/15 03:49:03;;;;;;;;;;;;;;;7.77;49.02;96677.38;67954;1275;1016007;-62
2024/01/15 03:52:05;;;;;;;28.30;8.10;;;;;;;7.81;48.58;96675.89;68024;1275;1016444;-62
2024/01/15 03:55:08;;;;;;;26.00;8.50;;;;;;;7.87;48.64;96674.78;68006;1275;1016230;-61
2024/01/15 03:58:11;;;;;;;26.50;8.30;;;;;;;7.80;48.47;96668.83;67985;1275;1016252;-62
2024/01/15 04:01:13;;;;;;;29.70;9.10;;;;;;;7.83;48.49;96669.77;68037;1275;1016416;-61
2024/01/15 04:04:16;;;;;;;25.50;8.20;;;;;;;7.84;48.40;96664.08;68041;1275;1016364;-61
2024/01/15 04:07:18;;;;;;;25.40;8.80;;;;;;;7.88;47.92;96660.80;67971;1275;1016772;-61
2024/01/15 04:10:21;;;;;;;;;;;;;;;7.92;47.69;96656.46;68025;1275;1016300;-61
2024/01/15 04:13:24;;;;;;;24.30;6.90;;;;;;;7.95;47.57;96652.73;68008;1275;1016100;-62
2024/01/15 04:16:26;;;;;;;;;;;;;;;7.84;47.56;96649.71;67988;1275;1016825;-61
2024/01/15 04:19:29;;;;;;;25.60;7.70;;;;;;;7.85;47.45;96638.79;68001;1275;1016432;-62
2024/01/15 04:22:31;;;;;;;23.70;6.50;;;;;;;8.02;47.27;96641.02;68020;1275;1016262;-61
2024/01/15 04:25:34;;;;;;;;;;;;;;;7.98;47.26;96636.10;68024;1275;1018073;-62
2024/01/15 04:28:37;;;;;;;24.00;8.00;;;;;;;7.97;46.97;96634.98;67980;1275;1016341;-61
2024/01/15 04:31:39;;;;;;;25.80;7.90;;;;;;;8.04;46.96;96627.30;68004;1275;1016554;-62
2024/01/15 04:34:42;;;;;;;23.70;7.70;;;;;;;8.03;46.90;96630.63;68019;1275;1016441;-62
2024/01/15 04:37:45;;;;;;;22.80;6.30;;;;;;;7.96;46.75;96631.42;67958;1275;1016445;-61
2024/01/15 04:40:47;;;;;;;;;;;;;;;7.88;46.95;96633.85;68007;1275;1016338;-61
2024/01/15 04:43:50;;;;;;;21.80;6.60;;;;;;;7.96;46.79;96628.80;68015;1275;1016438;-61
2024/01/15 04:46:52;;;;;;;21.90;6.50;;;;;;;8.03;46.92;96628.42;67950;1275;1015934;-62
2024/01/15 04:49:55;;;;;;;23.60;6.30;;;;;;;7.95;46.90;96627.52;67971;1275;1017278;-61
2024/01/15 04:52:58;;;;;;;;;;;;;;;8.02;46.77;96630.70;68017;1275;1016534;-61
2024/01/15 04:56:00;;;;;;;22.50;6.50;;;;;;;8.06;46.46;96624.50;67962;1275;1016422;-62
2024/01/15 04:59:03;;;;;;;;;;;;;;;8.11;46.28;96617.66;67974;1275;1016185;-61
2024/01/15 05:02:06;;;;;;;22.50;6.00;;;;;;;7.94;46.87;96611.59;68013;1275;1016476;-61
2024/01/15 05:05:08;;;;;;;;;;;;;;;7.78;47.03;96612.40;68045;1275;1016341;-61
2024/01/15 05:08:11;;;;;;;22.20;6.60;;;;;;;7.85;46.84;96617.55;67974;1275;1020347;-61
2024/01/15 05:11:14;;;;;;;;;;;;;;;7.75;47.26;96619.15;68046;1275;1016419;-61
2024/01/15 05:14:17;;;;;;;22.40;6.50;;;;;;;7.73;47.22;96619.09;67964;1275;1016357;-62
2024/01/15 05:17:20;;;;;;;;;;;;;;;7.78;47.02;96610.16;68046;1275;1016309;-61
2024/01/15 05:20:23;;;;;;;23.80;6.60;;;;;;;7.65;47.17;96616.63;67949;1275;1016363;-61
2024/01/15 05:23:25;;;;;;;;;;;;;;;7.74;47.05;96608.21;67941;1275;1016275;-61
2024/01/15 05:26:28;;;;;;;24.50;6.80;;;;;;;7.68;47.07;96603.16;67979;1275;1015691;-60
2024/01/15 05:29:30;;;;;;;;;;;;;;;7.44;47.86;96608.33;67963;1275;1016173;-60
2024/01/15 05:32:33;;;;;;;25.60;6.90;;;;;;;7.44;48.78;96620.13;67985;1275;1016455;-61
2024/01/15 05:35:36;;;;;;;;;;;;;;;7.45;51.97;96611.73;68016;1275;1018142;-60
2024/01/15 05:38:38;;;;;;;23.30;6.70;;;;;;;7.22;52.11;96612.02;67940;1275;1016144;-62
2024/01/15 05:41:41;;;;;;;25.30;7.00;;;;;;;7.15;50.57;96607.70;67935;1275;1015888;-62
2024/01/15 05:44:44;;;;;;;;;;;;;;;7.03;50.37;96609.04;67927;1275;1016556;-61
2024/01/15 05:47:46;;;;;;;25.10;7.00;;;;;;;7.17;49.62;96608.31;68019;1275;1018179;-61
2024/01/15 05:50:49;;;;;;;;;;;;;;;7.23;49.51;96608.63;68013;1275;1016362;-61
2024/01/15 05:53:51;;;;;;;22.40;6.20;;;;;;;7.21;49.43;96617.48;67947;1275;1016492;-60
2024/01/15 05:56:54;;;;;;;;;;;;;;;7.23;49.64;96608.27;68004;1275;1016296;-61
2024/01/15 05:59:57;;;;;;;22.00;5.40;;;;;;;7.39;49.69;96601.60;68011;1275;1016398;-62
2024/01/15 06:02:59;;;;;;;;;;;;;;;7.27;50.07;96611.44;67960;1275;1016531;-62
2024/01/15 06:06:02;;;;;;;23.60;6.50;;;;;;;7.29;50.07;96603.81;67982;1275;1016326;-62
2024/01/15 06:09:06;;;;;;;23.60;6.40;;;;;;;7.29;50.15;96597.86;67967;1275;1016424;-61
2024/01/15 06:12:08;;;;;;;24.70;6.10;;;;;;;7.11;50.65;96609.98;67984;1275;1016318;-61
2024/01/15 06:15:11;;;;;;;25.10;6.10;;;;;;;7.26;50.37;96598.00;67933;1275;1017660;-62
2024/01/15 06:18:14;;;;;;;;;;;;;;;7.17;50.50;96599.73;67942;1275;1016327;-61
2024/01/15 06:21:16;;;;;;;22.30;6.10;;;;;;;7.24;50.27;96597.92;67766;1275;1016367;-62
2024/01/15 06:24:20;;;;;;;23.90;6.60;;;;;;;7.21;50.24;96591.95;67980;1275;1016227;-61
2024/01/15 06:27:22;;;;;;;24.30;6.70;;;;;;;7.25;50.12;96595.06;67974;1275;1016004;-61
2024/01/15 06:30:25;;;;;;;;;;;;;;;7.32;49.69;96598.54;67996;1275;1016400;-62
2024/01/15 06:33:28;;;;;;;22.30;6.60;;;;;;;7.22;49.83;96594.67;67947;1275;1016248;-62
2024/01/15 06:36:30;;;;;;;24.30;7.20;;;;;;;7.24;49.46;96594.86;67978;1275;1016511;-62
2024/01/15 06:39:33;;;;;;;23.80;7.50;;;;;;;7.23;49.62;96599.47;67973;1275;1016493;-62
2024/01/15 06:42:35;;;;;;;24.40;7.20;;;;;;;7.32;49.54;96598.04;67954;1275;1016408;-61
2024/01/15 06:45:38;;;;;;;25.60;6.90;;;;;;;7.33;49.36;96603.86;67972;1275;1016275;-61
2024/01/15 06:48:41;;;;;;;22.50;6.30;;;;;;;7.33;49.34;96601.38;67974;1275;1016867;-61
2024/01/15 06:51:43;;;;;;;24.90;7.30;;;;;;;7.36;49.75;96605.88;67967;1275;1016176;-62
2024/01/15 06:54:46;;;;;;;25.20;7.00;;;;;;;7.26;49.92;96600.25;67960;1275;1016509;-61
2024/01/15 06:57:48;;;;;;;22.90;6.50;;;;;;;7.27;50.03;96602.60;67975;1275;1016146;-62
2024/01/15 07:00:51;;;;;;;22.00;6.90;;;;;;;7.42;49.95;96607.10;67990;1275;1016820;-61
2024/01/15 07:03:54;;;;;;;22.50;6.30;;;;;;;7.48;49.51;96603.80;67966;1275;1018339;-61
2024/01/15 07:06:56;;;;;;;;;;;;;;;7.53;49.30;96602.53;67973;1275;1016382;-61
2024/01/15 07:09:59;;;;;;;23.20;6.60;;;;;;;7.70;49.02;96606.88;67953;1275;1016478;-61
2024/01/15 07:13:02;;;;;;;26.30;7.20;;;;;;;7.63;48.98;96615.91;67980;1275;1016105;-61
2024/01/15 07:16:04;;;;;;;23.90;6.60;;;;;;;7.60;49.30;96611.14;67903;1275;1016093;-61
2024/01/15 07:19:07;;;;;;;;;;;;;;;7.72;48.76;96604.39;67931;1275;1016376;-61
2024/01/15 07:22:10;;;;;;;25.40;7.20;;;;;;;7.78;48.67;96608.04;67992;1275;1015998;-63
2024/01/15 07:25:12;;;;;;;;;;;;;;;7.86;48.19;96615.41;67967;1275;1016705;-61
2024/01/15 07:28:15;;;;;;;28.20;8.40;;;;;;;7.96;48.04;96613.81;67953;1275;1016224;-61
2024/01/15 07:31:18;;;;;;;;;;;;;;;8.10;47.35;96613.59;67979;1275;1019529;-62
2024/01/15 07:34:21;;;;;;;32.30;10.50;;;;;;;8.13;47.13;96616.77;67956;1275;1016406;-61
2024/01/15 07:37:24;;;;;;;33.90;9.80;;;;;;;7.96;47.53;96610.85;67983;1275;1018384;-61
2024/01/15 07:40:27;;;;;;;32.80;10.90;;;;;;;8.12;46.85;96620.98;67969;1275;1016090;-62
2024/01/15 07:43:29;;;;;;;36.90;11.00;;;;;;;8.31;46.36;96618.45;67910;1275;1016481;-62
2024/01/15 07:46:32;;;;;;;26.40;7.50;;;;;;;8.44;45.94;96618.48;68014;1275;1016199;-62
2024/01/15 07:49:34;;;;;;;26.40;7.60;;;;;;;8.47;45.93;96622.91;68005;1275;1016177;-61
2024/01/15 07:52:37;;;;;;;27.20;7.40;;;;;;;8.36;47.11;96630.63;67960;1275;1016495;-61
2024/01/15 07:55:40;;;;;;;31.60;9.90;;;;;;;8.33;48.29;96643.23;67938;1275;1016423;-61
2024/01/15 07:58:42;;;;;;;;;;;;;;;8.27;49.61;96645.83;67965;1275;1016413;-61
2024/01/15 08:01:45;;;;;;;24.20;6.60;;;;;;;8.06;52.22;96649.73;67982;1275;1016241;-62
2024/01/15 08:04:48;;;;;;;32.00;10.60;;;;;;;8.05;51.12;96653.63;67964;1275;1015912;-61
2024/01/15 08:07:50;;;;;;;;;;;;;;;8.22;50.39;96652.23;67998;1275;1016227;-61
2024/01/15 08:10:53;;;;;;;26.70;7.20;;;;;;;8.19;50.08;96641.52;68000;1275;1016339;-62
2024/01/15 08:13:56;;;;;;;24.90;7.80;;;;;;;8.03;50.56;96637.59;67928;1275;1016500;-62
2024/01/15 08:16:58;;;;;;;;;;;;;;;8.11;50.60;96655.61;67953;1275;1016300;-62
2024/01/15 08:20:01;;;;;;;26.60;7.40;;;;;;;8.13;50.27;96652.79;68003;1275;1016304;-62
2024/01/15 08:23:04;;;;;;;;;;;;;;;8.12;50.15;96650.78;67969;1275;1017632;-61
2024/01/15 08:26:06;;;;;;;23.70;7.50;;;;;;;8.05;50.15;96648.75;67953;1275;1016518;-61
2024/01/15 08:29:09;;;;;;;25.40;7.90;;;;;;;8.16;49.90;96650.98;68020;1275;1016336;-61
2024/01/15 08:32:14;;;;;;;;;;;;;;;8.11;50.66;96641.81;68013;1275;1016357;-61
2024/01/15 08:35:16;;;;;;;24.10;7.20;;;;;;;8.18;50.14;96649.20;67941;1275;1016278;-62
2024/01/15 08:38:19;;;;;;;;;;;;;;;8.09;49.92;96660.80;68005;1275;1018821;-61
2024/01/15 08:41:21;;;;;;;24.90;7.70;;;;;;;8.00;50.31;96654.19;67976;1275;1016441;-62
2024/01/15 08:44:24;;;;;;;26.90;7.60;;;;;;;8.00;50.15;96658.29;67953;1275;1016125;-62
2024/01/15 08:47:27;;;;;;;26.60;8.20;;;;;;;7.96;50.03;96655.27;67950;1275;1016394;-62
2024/01/15 08:50:30;;;;;;;24.50;6.80;;;;;;;8.06;49.78;96662.76;67991;1275;1016045;-62
2024/01/15 08:53:33;;;;;;;21.50;6.50;;;;;;;8.10;49.86;96661.91;67923;1275;1016391;-62
2024/01/15 08:56:36;;;;;;;23.00;6.70;;;;;;;7.93;49.84;96657.12;67987;1275;1019000;-62
2024/01/15 08:59:39;;;;;;;20.90;6.40;;;;;;;8.22;49.52;96648.35;67926;1275;1016467;-61
2024/01/15 09:02:42;;;;;;;22.60;7.00;;;;;;;8.30;49.07;96655.98;67967;1275;1016052;-61
2024/01/15 09:05:44;;;;;;;23.60;7.70;;;;;;;8.47;48.49;96668.88;67954;1275;1016477;-61
2024/01/15 09:08:47;;;;;;;;;;;;;;;8.63;48.13;96673.11;67926;1274;1016454;-62
2024/01/15 09:11:50;;;;;;;20.70;6.20;;;;;;;8.63;47.89;96669.05;67969;1275;1016304;-61
2024/01/15 09:14:53;;;;;;;17.70;5.60;;;;;;;8.66;47.57;96665.14;67952;1275;1016240;-61
2024/01/15 09:17:57;;;;;;;22.20;6.80;;;;;;;8.59;47.98;96682.98;67963;1275;1016467;-62
2024/01/15 09:21:00;;;;;;;24.20;7.60;;;;;;;8.73;47.84;96666.63;67997;1275;1018408;-62
2024/01/15 09:24:02;;;;;;;22.50;6.50;;;;;;;9.43;46.83;96662.73;68006;1275;1018188;-61
2024/01/15 09:27:05;;;;;;;;;;;;;;;9.57;46.01;96669.66;67980;1275;1016032;-61
2024/01/15 09:30:08;;;;;;;23.10;7.10;;;;;;;9.54;45.67;96668.52;67916;1275;1016186;-61
2024/01/15 09:33:10;;;;;;;;;;;;;;;9.29;45.67;96672.13;68004;1275;1016462;-61
2024/01/15 09:36:13;;;;;;;24.20;7.40;;;;;;;9.48;45.48;96664.33;67989;1275;1016019;-62
2024/01/15 09:39:16;;;;;;;;;;;;;;;9.63;44.78;96672.17;67952;1275;1016135;-62
2024/01/15 09:42:18;;;;;;;25.60;7.90;;;;;;;9.63;44.96;96676.77;67992;1275;1017189;-62
2024/01/15 09:45:21;;;;;;;23.00;6.80;;;;;;;9.53;44.54;96665.64;67970;1275;1017666;-62
2024/01/15 09:48:24;;;;;;;;;;;;;;;9.54;43.71;96676.03;67970;1275;1016464;-61
2024/01/15 09:51:26;;;;;;;24.90;7.60;;;;;;;9.40;43.94;96682.81;67988;1275;1016151;-62
2024/01/15 09:54:29;;;;;;;24.60;7.10;;;;;;;9.38;44.42;96650.78;67988;1275;1016347;-60
2024/01/15 09:57:32;;;;;;;;;;;;;;;9.19;44.50;96659.41;67948;1275;1016217;-61
2024/01/15 10:00:36;;;;;;;25.30;7.70;;;;;;;9.25;44.80;96651.73;68003;1275;1017056;-62
2024/01/15 10:03:39;;;;;;;24.70;7.60;;;;;;;9.19;44.52;96663.79;67962;1275;1018142;-61
2024/01/15 10:06:42;;;;;;;25.10;8.00;;;;;;;9.20;44.85;96657.10;67915;1275;1016132;-62
2024/01/15 10:09:45;;;;;;;24.60;7.60;;;;;;;9.33;44.61;96643.73;67965;1275;1016290;-62
2024/01/15 10:12:48;;;;;;;26.30;7.70;;;;;;;9.38;44.12;96653.95;67935;1275;1017174;-61
2024/01/15 10:15:51;;;;;;;24.60;8.20;;;;;;;9.33;43.91;96647.95;67992;1275;1016297;-62
2024/01/15 10:18:54;;;;;;;26.40;7.80;;;;;;;9.44;43.39;96658.05;67961;1275;1016492;-62
2024/01/15 10:21:57;;;;;;;24.60;7.60;;;;;;;9.62;43.35;96637.27;67998;1275;1016375;-62
2024/01/15 10:24:59;;;;;;;23.30;6.70;;;;;;;9.58;43.03;96628.88;67998;1275;1016841;-61
2024/01/15 10:28:02;;;;;;;24.40;6.50;;;;;;;9.68;42.94;96628.86;67963;1275;1016484;-61
2024/01/15 10:31:05;;;;;;;22.50;5.90;;;;;;;9.49;43.00;96632.45;67991;1275;1016321;-62
2024/01/15 10:34:08;;;;;;;;;;;;;;;9.33;43.07;96627.69;67963;1275;1016284;-62
2024/01/15 10:37:10;;;;;;;20.40;5.90;;;;;;;9.38;43.06;96614.84;67928;1275;1016140;-62
2024/01/15 10:40:13;;;;;;;;;;;;;;;9.37;43.01;96630.46;67983;1275;1018700;-62
2024/01/15 10:43:17;;;;;;;22.20;6.40;;;;;;;9.33;42.80;96626.45;67924;1275;1016339;-61
2024/01/15 10:46:20;;;;;;;24.80;7.20;;;;;;;9.42;42.89;96622.47;67944;1275;1016473;-61
2024/01/15 10:49:25;;;;;;;28.00;9.10;;;;;;;9.39;42.78;96631.13;67958;1275;1016097;-62
2024/01/15 10:52:29;;;;;;;25.80;7.90;;;;;;;9.13;42.63;96652.46;67947;1275;1018857;-60
2024/01/15 10:55:32;;;;;;;27.40;7.80;;;;;;;9.07;43.44;96642.20;67974;1275;1019507;-62
2024/01/15 10:58:35;;;;;;;23.90;6.70;;;;;;;9.13;43.02;96629.08;67992;1275;1016472;-62
2024/01/15 11:01:37;;;;;;;24.10;6.90;;;;;;;9.27;42.70;96645.65;68005;1275;1016263;-62
2024/01/15 11:04:40;;;;;;;;;;;;;;;9.27;42.73;96634.88;67956;1275;1016285;-61
2024/01/15 11:07:42;;;;;;;25.20;8.00;;;;;;;9.27;42.41;96615.15;67967;1275;1016363;-62
2024/01/15 11:10:46;;;;;;;20.20;5.40;;;;;;;9.45;42.16;96624.50;68037;1275;1016489;-62
2024/01/15 11:13:52;;;;;;;24.50;6.80;;;;;;;9.49;41.48;96643.86;67907;1275;1016513;-62
2024/01/15 11:16:54;;;;;;;22.90;7.00;;;;;;;9.47;41.70;96637.19;67929;1275;1016110;-62
2024/01/15 11:19:57;;;;;;;26.60;7.70;;;;;;;9.44;41.52;96651.44;68017;1275;1016433;-61
2024/01/15 11:23:00;;;;;;;25.10;7.40;;;;;;;9.08;42.31;96650.16;67997;1275;1016323;-62
2024/01/15 11:26:02;;;;;;;;;;;;;;;9.17;42.49;96642.86;67961;1275;1016246;-61
2024/01/15 11:29:05;;;;;;;24.20;6.80;;;;;;;9.13;42.16;96650.91;67997;1275;1016396;-62
2024/01/15 11:32:08;;;;;;;25.50;6.80;;;;;;;9.13;42.16;96632.65;67959;1275;1016348;-61
2024/01/15 11:35:11;;;;;;;25.50;6.90;;;;;;;8.81;42.14;96637.32;67942;1275;1016068;-62
2024/01/15 11:38:13;;;;;;;;;;;;;;;8.62;42.62;96635.50;67980;1275;1016404;-61
2024/01/15 11:41:16;;;;;;;29.20;8.90;;;;;;;8.59;42.73;96641.77;67978;1275;1016480;-62
2024/01/15 11:44:19;;;;;;;24.50;6.70;;;;;;;8.38;42.54;96656.54;67985;1275;1016303;-61
2024/01/15 11:47:21;;;;;;;;;;;;;;;8.31;43.22;96626.02;67981;1275;1016474;-62
2024/01/15 11:50:24;;;;;;;;;;;;;;;8.47;42.78;96622.55;67969;1275;1016335;-62
2024/01/15 11:53:27;;;;;;;24.60;7.40;;;;;;;8.54;43.00;96616.06;67919;1275;1016316;-62
2024/01/15 11:56:29;;;;;;;;;;;;;;;8.68;42.32;96607.01;67991;1275;1016355;-62
2024/01/15 11:59:32;;;;;;;24.40;6.70;;;;;;;8.59;42.48;96611.78;67970;1275;1017857;-62
2024/01/15 12:02:35;;;;;;;;;;;;;;;8.32;42.77;96635.50;67969;1275;1016403;-62
2024/01/15 12:05:37;;;;;;;24.90;7.10;;;;;;;8.33;43.01;96624.45;68030;1275;1016377;-62
2024/01/15 12:08:40;;;;;;;;;;;;;;;8.33;42.80;96619.04;67983;1275;1016347;-61
2024/01/15 12:11:43;;;;;;;26.30;7.40;;;;;;;8.30;42.78;96631.13;67909;1275;1016398;-61
2024/01/15 12:14:46;;;;;;;26.90;7.00;;;;;;;8.40;42.97;96615.34;67971;1274;1016333;-62
2024/01/15 12:17:48;;;;;;;22.60;7.00;;;;;;;8.37;43.04;96623.29;67971;1275;1015954;-62
2024/01/15 12:20:51;;;;;;;26.60;6.90;;;;;;;8.50;42.59;96609.42;67954;1274;1015853;-62
2024/01/15 12:23:54;;;;;;;22.90;6.50;;;;;;;8.51;42.60;96613.31;67953;1275;1016093;-61
2024/01/15 12:26:57;;;;;;;23.30;7.10;;;;;;;8.52;43.08;96611.34;67945;1275;1016339;-62
2024/01/15 12:30:00;;;;;;;24.00;7.10;;;;;;;8.49;43.38;96604.13;68006;1275;1016131;-62
2024/01/15 12:33:03;;;;;;;25.10;7.70;;;;;;;8.63;43.21;96600.57;67940;1275;1016470;-62
2024/01/15 12:36:06;;;;;;;23.30;8.00;;;;;;;8.82;43.22;96610.80;68004;1275;1016324;-62
2024/01/15 12:39:09;;;;;;;28.20;9.40;;;;;;;8.99;43.31;96589.74;67947;1275;1016392;-61
2024/01/15 12:42:12;;;;;;;26.80;8.90;;;;;;;8.85;42.95;96605.16;67997;1275;1016232;-61
2024/01/15 12:45:14;;;;;;;;;;;;;;;8.77;43.30;96585.39;67914;1275;1016412;-61
2024/01/15 12:48:17;;;;;;;28.80;9.00;;;;;;;8.92;43.07;96587.98;67951;1275;1016469;-62
2024/01/15 12:51:20;;;;;;;25.90;8.70;;;;;;;8.82;42.89;96606.74;67996;1275;1016445;-61
2024/01/15 12:54:23;;;;;;;;;;;;;;;8.62;43.18;96604.59;67897;1275;1016370;-62
2024/01/15 12:57:26;;;;;;;25.40;8.70;;;;;;;8.47;43.41;96602.73;67955;1275;1016473;-62
2024/01/15 13:00:28;;;;;;;27.00;9.50;;;;;;;8.58;43.37;96613.57;67952;1275;1015983;-61
2024/01/15 13:03:31;;;;;;;;;;;;;;;8.61;43.05;96608.48;67975;1275;1016319;-61
2024/01/15 13:06:34;;;;;;;27.80;8.70;;;;;;;8.49;43.25;96607.55;67991;1275;1016293;-62
2024/01/15 13:09:36;;;;;;;;;;;;;;;8.40;43.05;96611.11;67996;1275;1016396;-61
2024/01/15 13:12:39;;;;;;;27.20;8.50;;;;;;;8.37;43.18;96612.44;67946;1275;1016484;-61
2024/01/15 13:15:42;;;;;;;;;;;;;;;8.34;43.15;96604.02;68024;1275;1016546;-60
2024/01/15 13:18:44;;;;;;;27.00;9.20;;;;;;;8.16;42.94;96617.15;67989;1275;1016311;-62
2024/01/15 13:21:47;;;;;;;29.30;9.10;;;;;;;8.33;43.18;96627.43;67962;1275;1016432;-62
2024/01/15 13:24:50;;;;;;;24.30;8.30;;;;;;;8.26;43.10;96631.66;67981;1275;1015930;-61
2024/01/15 13:27:52;;;;;;;27.20;8.50;;;;;;;8.37;43.11;96632.81;67996;1275;1016385;-62
2024/01/15 13:30:55;;;;;;;26.10;7.20;;;;;;;8.36;42.74;96622.27;67946;1275;1016745;-62
2024/01/15 13:33:57;;;;;;;27.90;9.70;;;;;;;8.34;42.62;96624.66;67971;1275;1016438;-62
2024/01/15 13:37:00;;;;;;;31.50;11.00;;;;;;;8.45;42.62;96622.69;68001;1275;1016412;-61
2024/01/15 13:40:03;;;;;;;35.50;12.40;;;;;;;8.55;42.59;96623.60;67952;1275;1016467;-62
2024/01/15 13:43:08;;;;;;;30.80;10.30;;;;;;;8.47;42.25;96625.86;67999;1275;1016375;-62
2024/01/15 13:46:10;;;;;;;39.20;14.10;;;;;;;8.27;42.48;96638.02;68007;1275;1017986;-62
2024/01/15 13:49:13;;;;;;;;;;;;;;;8.35;42.33;96635.90;67967;1275;1016189;-61
2024/01/15 13:52:16;;;;;;;;;;;;;;;8.28;42.44;96633.96;67987;1275;1016435;-62
2024/01/15 13:55:19;;;;;;;39.40;14.40;;;;;;;8.27;42.47;96631.54;67947;1275;1016128;-61
2024/01/15 13:58:22;;;;;;;27.10;8.80;;;;;;;8.25;42.25;96632.30;67952;1275;1016268;-62
2024/01/15 14:01:25;;;;;;;;;;;;;;;8.19;42.73;96630.54;67937;1275;1016397;-61
2024/01/15 14:04:27;;;;;;;32.20;10.20;;;;;;;8.19;42.74;96625.27;67927;1275;1016435;-61
2024/01/15 14:07:30;;;;;;;35.70;12.30;;;;;;;8.26;42.54;96624.34;67941;1275;1016471;-61
2024/01/15 14:10:33;;;;;;;;;;;;;;;8.22;42.69;96626.98;67958;1275;1016357;-61
2024/01/15 14:13:35;;;;;;;48.90;15.70;;;;;;;8.22;42.86;96631.11;67942;1275;1016543;-62
2024/01/15 14:16:38;;;;;;;;;;;;;;;8.10;43.03;96622.18;67967;1275;1016404;-61
2024/01/15 14:19:41;;;;;;;42.70;12.90;;;;;;;8.10;43.00;96627.30;67952;1275;1016515;-61
2024/01/15 14:22:44;;;;;;;41.20;14.70;;;;;;;8.18;43.01;96633.23;67973;1275;1016453;-61